createdAt,value
2022-12-04T00:02:31.143Z,-7.44
2022-12-04T00:05:33.032Z,-7.43
2022-12-04T00:08:35.691Z,-7.51
2022-12-04T00:11:38.584Z,-7.48
2022-12-04T00:15:16.133Z,-7.53
2022-12-04T00:18:02.081Z,-7.52
2022-12-04T00:21:10.450Z,-7.62
2022-12-04T00:24:12.584Z,-7.63
2022-12-04T00:27:14.499Z,-7.59
2022-12-04T00:30:16.327Z,-7.56
2022-12-04T00:33:18.195Z,-7.62
2022-12-04T00:36:24.176Z,-7.63
2022-12-04T00:39:25.999Z,-7.65
2022-12-04T00:42:27.933Z,-7.65
2022-12-04T00:45:29.799Z,-7.65
2022-12-04T00:48:32.131Z,-7.65
2022-12-04T00:51:33.975Z,-7.77
2022-12-04T00:54:35.738Z,-7.77
2022-12-04T00:57:37.624Z,-7.79
2022-12-04T01:00:43.308Z,-7.82
2022-12-04T01:03:45.565Z,-7.92
2022-12-04T01:06:47.489Z,-7.95
2022-12-04T01:09:49.416Z,-7.93
2022-12-04T01:12:53.659Z,-7.91
2022-12-04T01:15:55.576Z,-7.95
2022-12-04T01:18:57.912Z,-8.00
2022-12-04T01:21:59.680Z,-7.99
2022-12-04T01:25:01.599Z,-8.06
2022-12-04T01:28:03.468Z,-8.04
2022-12-04T01:31:08.884Z,-8.02
2022-12-04T01:34:10.750Z,-8.06
2022-12-04T01:37:12.616Z,-8.09
2022-12-04T01:40:16.879Z,-8.11
2022-12-04T01:43:19.611Z,-8.04
2022-12-04T01:46:21.516Z,-8.07
2022-12-04T01:49:29.114Z,-8.07
2022-12-04T01:52:31.296Z,-8.13
2022-12-04T01:55:33.215Z,-8.18
2022-12-04T01:58:41.075Z,-8.19
2022-12-04T02:01:52.606Z,-8.16
2022-12-04T02:04:54.976Z,-8.16
2022-12-04T02:08:00.265Z,-8.17
2022-12-04T02:11:20.519Z,-8.13
2022-12-04T02:14:45.274Z,-8.17
2022-12-04T02:17:57.388Z,-8.24
2022-12-04T02:21:25.384Z,-8.17
2022-12-04T02:24:36.405Z,-8.20
2022-12-04T02:28:08.631Z,-8.17
2022-12-04T02:31:15.657Z,-8.12
2022-12-04T02:34:25.700Z,-8.13
2022-12-04T02:37:32.096Z,-8.24
2022-12-04T02:40:51.873Z,-8.20
2022-12-04T02:44:14.358Z,-8.21
2022-12-04T02:47:20.362Z,-8.18
2022-12-04T02:50:24.447Z,-8.22
2022-12-04T02:53:36.579Z,-8.23
2022-12-04T02:56:44.093Z,-8.25
2022-12-04T02:59:48.846Z,-8.27
2022-12-04T03:03:07.514Z,-8.20
2022-12-04T03:06:14.053Z,-8.26
2022-12-04T03:09:21.839Z,-8.27
2022-12-04T03:12:36.342Z,-8.27
2022-12-04T03:15:47.575Z,-8.32
2022-12-04T03:19:00.725Z,-8.39
2022-12-04T03:22:07.007Z,-8.40
2022-12-04T03:25:09.491Z,-8.41
2022-12-04T03:28:22.477Z,-8.42
2022-12-04T03:31:35.750Z,-8.46
2022-12-04T03:34:55.952Z,-8.46
2022-12-04T03:38:00.432Z,-8.40
2022-12-04T03:41:07.731Z,-8.43
2022-12-04T03:44:16.664Z,-8.46
2022-12-04T03:47:32.864Z,-8.44
2022-12-04T03:50:39.585Z,-8.46
2022-12-04T03:53:56.718Z,-8.41
2022-12-04T03:57:10.476Z,-8.38
2022-12-04T04:00:14.281Z,-8.41
2022-12-04T04:03:30.097Z,-8.44
2022-12-04T04:06:45.868Z,-8.49
2022-12-04T04:09:54.413Z,-8.45
2022-12-04T04:13:21.256Z,-8.45
2022-12-04T04:16:46.512Z,-8.53
2022-12-04T04:20:13.788Z,-8.51
2022-12-04T04:23:37.502Z,-8.52
2022-12-04T04:26:43.983Z,-8.53
2022-12-04T04:29:52.073Z,-8.55
2022-12-04T04:33:11.689Z,-8.56
2022-12-04T04:36:25.398Z,-8.62
2022-12-04T04:39:59.282Z,-8.64
2022-12-04T04:43:17.377Z,-8.61
2022-12-04T04:46:31.158Z,-8.63
2022-12-04T04:49:36.049Z,-8.62
2022-12-04T04:52:41.268Z,-8.63
2022-12-04T04:55:44.701Z,-8.64
2022-12-04T04:58:46.771Z,-8.67
2022-12-04T05:01:48.743Z,-8.67
2022-12-04T05:04:50.600Z,-8.71
2022-12-04T05:07:52.485Z,-8.70
2022-12-04T05:10:54.443Z,-8.75
2022-12-04T05:13:56.457Z,-8.68
2022-12-04T05:17:01.837Z,-8.70
2022-12-04T05:20:07.646Z,-8.73
2022-12-04T05:23:09.423Z,-8.69
2022-12-04T05:26:11.448Z,-8.72
2022-12-04T05:29:13.266Z,-8.65
2022-12-04T05:32:15.545Z,-8.64
2022-12-04T05:35:17.561Z,-8.57
2022-12-04T05:38:19.471Z,-8.54
2022-12-04T05:41:21.245Z,-8.57
2022-12-04T05:44:23.195Z,-8.53
2022-12-04T05:47:25.170Z,-8.52
2022-12-04T05:50:27.045Z,-8.47
2022-12-04T05:53:28.891Z,-8.46
2022-12-04T05:56:30.926Z,-8.50
2022-12-04T05:59:33.120Z,-8.48
2022-12-04T06:02:34.974Z,-8.51
2022-12-04T06:05:36.963Z,-8.48
2022-12-04T06:08:38.846Z,-8.45
2022-12-04T06:11:43.101Z,-8.41
2022-12-04T06:14:44.943Z,-8.42
2022-12-04T06:17:46.856Z,-8.36
2022-12-04T06:20:48.843Z,-8.42
2022-12-04T06:23:52.061Z,-8.38
2022-12-04T06:27:26.128Z,-8.38
2022-12-04T06:30:20.552Z,-8.35
2022-12-04T06:33:22.446Z,-8.35
2022-12-04T06:36:24.951Z,-8.37
2022-12-04T06:39:26.827Z,-8.30
2022-12-04T06:42:28.655Z,-8.26
2022-12-04T06:45:30.633Z,-8.19
2022-12-04T06:48:33.468Z,-8.20
2022-12-04T06:51:37.439Z,-8.21
2022-12-04T06:54:39.309Z,-8.10
2022-12-04T06:57:41.133Z,-8.05
2022-12-04T07:00:42.936Z,-7.93
2022-12-04T07:03:51.373Z,-7.83
2022-12-04T07:06:54.626Z,-7.78
2022-12-04T07:09:56.750Z,-7.74
2022-12-04T07:12:58.775Z,-7.66
2022-12-04T07:16:02.906Z,-7.56
2022-12-04T07:19:04.835Z,-7.41
2022-12-04T07:22:08.936Z,-7.25
2022-12-04T07:25:10.907Z,-7.30
2022-12-04T07:28:12.715Z,-7.20
2022-12-04T07:31:17.930Z,-7.20
2022-12-04T07:34:19.889Z,-6.99
2022-12-04T07:37:21.796Z,-6.80
2022-12-04T07:40:23.677Z,-6.61
2022-12-04T07:43:27.268Z,-6.46
2022-12-04T07:46:29.483Z,-6.54
2022-12-04T07:49:31.298Z,-6.59
2022-12-04T07:52:39.955Z,-6.46
2022-12-04T07:55:42.167Z,-6.55
2022-12-04T07:58:44.695Z,-6.50
2022-12-04T08:01:46.602Z,-6.68
2022-12-04T08:04:51.331Z,-6.53
2022-12-04T08:07:53.449Z,-6.51
2022-12-04T11:32:21.346Z,-4.88
2022-12-04T11:35:26.042Z,-4.87
2022-12-04T11:38:30.311Z,-4.89
2022-12-04T11:41:33.193Z,-4.93
2022-12-04T11:44:36.471Z,-4.97
2022-12-04T11:47:38.346Z,-4.88
2022-12-04T11:50:47.266Z,-4.92
2022-12-04T11:54:02.866Z,-4.99
2022-12-04T11:57:15.230Z,-5.03
2022-12-04T12:00:19.954Z,-5.00
2022-12-04T12:03:39.564Z,-4.97
2022-12-04T12:07:09.544Z,-4.99
2022-12-04T12:10:19.098Z,-5.04
2022-12-04T12:13:34.444Z,-5.07
2022-12-04T12:16:49.898Z,-5.13
2022-12-04T12:20:31.323Z,-5.11
2022-12-04T12:24:10.524Z,-5.20
2022-12-04T12:27:39.490Z,-5.13
2022-12-04T12:30:55.486Z,-5.19
2022-12-04T12:34:43.412Z,-5.14
2022-12-04T12:37:52.643Z,-5.20
2022-12-04T12:41:01.029Z,-5.30
2022-12-04T12:44:05.514Z,-5.34
2022-12-04T12:47:17.950Z,-5.32
2022-12-04T12:50:29.381Z,-5.30
2022-12-04T12:53:36.646Z,-5.39
2022-12-04T12:56:47.833Z,-5.39
2022-12-04T12:59:57.822Z,-5.41
2022-12-04T13:03:23.205Z,-5.61
2022-12-04T13:06:33.759Z,-5.45
2022-12-04T13:09:42.311Z,-5.53
2022-12-04T13:13:07.798Z,-5.55
2022-12-04T13:16:19.906Z,-5.53
2022-12-04T13:19:29.936Z,-5.64
2022-12-04T13:22:59.482Z,-5.64
2022-12-04T13:26:28.492Z,-5.64
2022-12-04T13:30:02.598Z,-5.65
2022-12-04T13:33:39.670Z,-5.69
2022-12-04T13:36:50.554Z,-5.75
2022-12-04T13:40:20.591Z,-5.77
2022-12-04T13:43:33.779Z,-5.74
2022-12-04T13:46:40.309Z,-5.79
2022-12-04T13:49:46.018Z,-5.84
2022-12-04T13:52:49.431Z,-5.84
2022-12-04T13:56:03.170Z,-5.87
2022-12-04T13:59:27.555Z,-5.83
2022-12-04T14:02:35.450Z,-5.84
2022-12-04T14:05:42.827Z,-5.90
2022-12-04T14:08:44.800Z,-5.96
2022-12-04T14:11:51.833Z,-6.05
2022-12-04T14:15:00.629Z,-6.01
2022-12-04T14:18:11.398Z,-6.04
2022-12-04T14:21:13.262Z,-6.09
2022-12-04T14:24:31.924Z,-6.14
2022-12-04T14:27:42.497Z,-6.15
2022-12-04T14:30:45.321Z,-6.17
2022-12-04T14:33:52.436Z,-6.22
2022-12-04T14:36:56.440Z,-6.24
2022-12-04T14:40:00.766Z,-6.26
2022-12-04T14:43:02.826Z,-6.37
2022-12-04T14:46:23.538Z,-6.38
2022-12-04T14:49:41.025Z,-6.47
2022-12-04T14:52:59.107Z,-6.43
2022-12-04T14:56:39.111Z,-6.49
2022-12-04T14:59:49.723Z,-6.43
2022-12-04T15:02:58.305Z,-6.49
2022-12-04T15:06:07.088Z,-6.54
2022-12-04T15:09:39.672Z,-6.58
2022-12-04T15:12:47.988Z,-6.62
2022-12-04T15:15:50.206Z,-6.61
2022-12-04T15:19:01.201Z,-6.59
2022-12-04T15:22:11.343Z,-6.66
2022-12-04T15:25:30.821Z,-6.68
2022-12-04T15:28:40.795Z,-6.68
2022-12-04T15:31:53.535Z,-6.70
2022-12-04T15:35:06.429Z,-6.75
2022-12-04T15:38:13.558Z,-6.78
2022-12-04T15:41:31.669Z,-6.78
2022-12-04T15:44:35.399Z,-6.77
2022-12-04T15:47:41.355Z,-6.81
2022-12-04T15:50:43.241Z,-6.89
2022-12-04T15:53:46.842Z,-6.88
2022-12-04T15:57:06.785Z,-6.90
2022-12-04T16:00:31.394Z,-6.86
2022-12-04T16:03:48.514Z,-6.85
2022-12-04T16:06:53.872Z,-6.88
2022-12-04T16:10:03.285Z,-6.91
2022-12-04T16:13:07.381Z,-6.86
2022-12-04T16:16:14.164Z,-6.90
2022-12-04T16:19:27.806Z,-6.87
2022-12-04T16:22:31.561Z,-6.96
2022-12-04T16:25:33.660Z,-6.92
2022-12-04T16:28:35.538Z,-6.96
2022-12-04T16:31:38.717Z,-6.96
2022-12-04T16:34:40.739Z,-6.95
2022-12-04T16:37:43.221Z,-6.97
2022-12-04T16:40:47.058Z,-7.01
2022-12-04T16:43:57.516Z,-6.98
2022-12-04T16:46:59.425Z,-6.99
2022-12-04T16:50:01.311Z,-6.99
2022-12-04T16:53:03.612Z,-7.03
2022-12-04T16:56:05.701Z,-7.02
2022-12-04T16:59:11.766Z,-7.03
2022-12-04T17:02:23.445Z,-7.05
2022-12-04T17:05:29.640Z,-7.07
2022-12-04T17:08:31.991Z,-7.05
2022-12-04T17:11:33.870Z,-7.10
2022-12-04T17:14:35.782Z,-7.15
2022-12-04T17:17:39.219Z,-7.18
2022-12-04T17:20:42.513Z,-7.14
2022-12-04T17:23:44.837Z,-7.20
2022-12-04T17:26:46.740Z,-7.23
2022-12-04T17:29:48.676Z,-7.21
2022-12-04T17:32:50.618Z,-7.26
2022-12-04T17:35:54.146Z,-7.25
2022-12-04T17:38:57.801Z,-7.24
2022-12-04T17:41:59.652Z,-7.25
2022-12-04T17:45:01.580Z,-7.26
2022-12-04T17:48:03.421Z,-7.21
2022-12-04T17:51:13.966Z,-7.20
2022-12-04T17:54:16.033Z,-7.26
2022-12-04T17:57:18.962Z,-7.28
2022-12-04T18:00:23.319Z,-7.37
2022-12-04T18:03:25.212Z,-7.31
2022-12-04T18:06:30.049Z,-7.39
2022-12-04T18:09:33.176Z,-7.38
2022-12-04T18:12:35.117Z,-7.44
2022-12-04T18:15:36.975Z,-7.41
2022-12-04T18:18:39.373Z,-7.40
2022-12-04T18:21:41.747Z,-7.46
2022-12-04T18:24:46.243Z,-7.45
2022-12-04T18:27:48.075Z,-7.49
2022-12-04T18:30:50.020Z,-7.56
2022-12-04T18:33:52.011Z,-7.53
2022-12-04T18:36:54.019Z,-7.55
2022-12-04T18:39:56.327Z,-7.61
2022-12-04T18:43:00.143Z,-7.56
2022-12-04T18:46:08.312Z,-7.61
2022-12-04T18:49:13.735Z,-7.61
2022-12-04T18:52:15.809Z,-7.66
2022-12-04T18:55:17.715Z,-7.63
2022-12-04T18:58:22.731Z,-7.67
2022-12-04T19:01:25.604Z,-7.70
2022-12-04T19:04:27.658Z,-7.66
2022-12-04T19:07:29.689Z,-7.66
2022-12-04T19:10:31.535Z,-7.75
2022-12-04T19:13:34.072Z,-7.75
2022-12-04T19:16:36.082Z,-7.72
2022-12-04T19:19:38.162Z,-7.79
2022-12-04T19:22:40.415Z,-7.80
2022-12-04T19:25:42.327Z,-7.86
2022-12-04T19:28:45.386Z,-7.91
2022-12-04T19:31:47.426Z,-7.85
2022-12-04T19:34:50.551Z,-7.90
2022-12-04T19:37:54.944Z,-7.96
2022-12-04T19:41:21.717Z,-7.97
2022-12-04T19:44:47.788Z,-8.00
2022-12-04T19:47:45.686Z,-8.02
2022-12-04T19:50:47.570Z,-8.01
2022-12-04T19:53:49.617Z,-8.04
2022-12-04T19:56:52.643Z,-8.05
2022-12-04T19:59:54.533Z,-8.04
2022-12-04T20:02:56.479Z,-8.05
2022-12-04T20:06:18.256Z,-8.11
2022-12-04T20:09:22.295Z,-8.13
2022-12-04T20:12:24.785Z,-8.14
2022-12-04T20:15:26.715Z,-8.17
2022-12-04T20:18:28.579Z,-8.18
2022-12-04T20:21:32.026Z,-8.18
2022-12-04T20:24:33.982Z,-8.20
2022-12-04T20:27:35.867Z,-8.26
2022-12-04T20:30:37.678Z,-8.20
2022-12-04T20:33:41.209Z,-8.24
2022-12-04T20:36:44.546Z,-8.24
2022-12-04T20:39:46.399Z,-8.27
2022-12-04T20:42:48.261Z,-8.25
2022-12-04T20:45:50.180Z,-8.23
2022-12-04T20:48:53.538Z,-8.28
2022-12-04T20:51:55.395Z,-8.28
2022-12-04T20:54:57.277Z,-8.40
2022-12-04T20:57:59.141Z,-8.38
2022-12-04T21:01:18.387Z,-8.35
2022-12-04T21:04:20.586Z,-8.38
2022-12-04T21:07:22.672Z,-8.45
2022-12-04T21:10:24.664Z,-8.50
2022-12-04T21:13:44.772Z,-8.44
2022-12-04T21:16:47.673Z,-8.46
2022-12-04T21:19:50.572Z,-8.45
2022-12-04T21:22:53.174Z,-8.50
2022-12-04T21:25:55.867Z,-8.47
2022-12-04T21:28:58.619Z,-8.48
2022-12-04T21:32:00.669Z,-8.55
2022-12-04T21:35:02.926Z,-8.57
2022-12-04T21:38:04.755Z,-8.60
2022-12-04T21:41:08.299Z,-8.59
2022-12-04T21:44:13.027Z,-8.60
2022-12-04T21:47:14.887Z,-8.58
2022-12-04T21:50:16.883Z,-8.62
2022-12-04T21:53:18.791Z,-8.58
2022-12-04T21:56:22.479Z,-8.64
2022-12-04T21:59:26.114Z,-8.66
2022-12-04T22:02:28.486Z,-8.64
2022-12-04T22:05:33.414Z,-8.62
2022-12-04T22:08:37.883Z,-8.63
2022-12-04T22:11:42.088Z,-8.66
2022-12-04T22:14:44.378Z,-8.69
2022-12-04T22:17:46.299Z,-8.74
2022-12-04T22:20:49.239Z,-8.78
2022-12-04T22:23:57.919Z,-8.76
2022-12-04T22:26:59.949Z,-8.86
2022-12-04T22:30:01.757Z,-8.80
2022-12-04T22:33:04.035Z,-8.81
2022-12-04T22:36:09.185Z,-8.86
2022-12-04T22:39:11.345Z,-8.91
2022-12-04T22:42:13.526Z,-8.83
2022-12-04T22:45:15.382Z,-8.91
2022-12-04T22:48:17.245Z,-8.95
2022-12-04T22:51:21.444Z,-8.93
2022-12-04T22:54:23.354Z,-8.99
2022-12-04T22:57:25.709Z,-9.05
2022-12-04T23:00:28.370Z,-9.12
2022-12-04T23:03:30.273Z,-9.16
2022-12-04T23:06:34.005Z,-9.12
2022-12-04T23:09:36.250Z,-9.19
2022-12-04T23:12:38.161Z,-9.13
2022-12-04T23:15:40.107Z,-9.16
2022-12-04T23:18:41.980Z,-9.21
2022-12-04T23:21:44.845Z,-9.28
2022-12-04T23:24:46.584Z,-9.24
2022-12-04T23:27:48.924Z,-9.25
2022-12-04T23:30:50.831Z,-9.24
2022-12-04T23:33:52.811Z,-9.30
2022-12-04T23:36:54.669Z,-9.40
2022-12-04T23:39:56.872Z,-9.37
2022-12-04T23:42:58.947Z,-9.40
2022-12-04T23:46:03.423Z,-9.36
2022-12-04T23:49:08.600Z,-9.37
2022-12-04T23:52:10.323Z,-9.48
2022-12-04T23:55:12.176Z,-9.48
2022-12-04T23:58:14.029Z,-9.47
